Share

Petersburg, AK

Johnson Petersburg (PAPG) Elev 0 ft | 56.82 °N, 132.97 °W | Change Station

Current weather conditions updated 1 hour ago

Light Rain
Light Rain Mist
45 °F
Feels Like 40 °F
N
8
Wind Variable Wind from East
Sunrise 5:42 AM
Sunset 8:04 PM
Moon Waning Gibbous

Tomorrow is forecast to be Cooler than today. Light rain.

Pressure 29.50 in
Visibility 5.0 miles
Clouds Overcast 4500 ft
Windchill 40 °F
Dew Point 36 °F
Humidity 71%
Rainfall 0.00 in
Snow Depth Not available.
UV 0 out of 16
Pollen Not available.
Air Quality Not available.
Flu Activity Sporadic
METAR PAPG 170555Z 10007KT 5SM -RA BR OVC045 07/02 A2950 RMK (JNC)

More Conditions Fewer Conditions

Pressure 29.50 in
Visibility 5.0 miles
Clouds Overcast 4500 ft
Windchill 40 °F
Dew Point 36 °F
Humidity 71%
Rainfall 0.00 in
Snow Depth Not available.
UV 0 out of 16
Pollen Not available.
Air Quality Not available.
Flu Activity Sporadic
METAR PAPG 170555Z 10007KT 5SM -RA BR OVC045 07/02 A2950 RMK (JNC)

More Conditions Fewer Conditions

10-Day Forecast

Almanac

Astronomy

Apr. 16, 2014 Rise Set
Actual Time 5:42 AM AKDT 8:04 PM AKDT
Civil Twilight 5:00 AM AKDT 8:46 PM AKDT
Nautical Twilight 4:07 AM AKDT 9:41 PM AKDT
Astronomical Twilight 3:00 AM AKDT 10:49 PM AKDT
Moon 10:15 PM AKDT (4/16) 6:21 AM AKDT (4/16)
Length of Visible Light 15h 46m
Length of Day
14h 22m
Tomorrow will be 4m 43s longer.
Waning Gibbous, 95% of the Moon is Illuminated
Apr 17
Waning Gibbous
Apr 22
Last Quarter
Apr 29
New
May 6
First Quarter
May 14
Full

Community

  • Sunset over the Bay
    Sunset over the Bay
  • symphony in blue....
    symphony in blue....
  • Dawn Surprise
    Dawn Surprise
  • Yucca delight
    Yucca delight
  • Sunset inside of the Ocean
    Sunset inside of the Ocean

WunderPhotos

Upload Photos

1,701,875 photos uploaded!

WunderBlogs® & News

Nearby

Snow Depth

Station Depth Elevation
Long Lake 101 in 820 ft
Upper Tsaina River 56 in 1750 ft
Moraine 10 in 2100 ft
Grandview 36 in 1100 ft
Grouse Creek Divide 27 in 700 ft

Coastal Water Temperatures

Place Temperature
No Stations Reporting

Earthquake Activity

City Distance Mag. Time & Date
No recent earthquake activity has been reported nearby.
Minimum magnitude displayed is 2.5.

Nearby Weather Stations

Station Location Temp. Windchill Dew Point Humidity Wind Precip. Elev Updated Type
RAWS KAKE AK, Kake, AK 42 °F 42 °F 36 °F 80% SE  at  1 mph 0.00 in / hr 399 ft 10:55 PM AKDT MADIS
Papke's Landing, Petersburg, AK 42.1 °F 42 °F 42 °F 99% WNW  at  0.0 mph - / hr 0 ft 11:38 PM AKDT Normal

Show More Stations Show Fewer Stations

What do you think?

We're not finished. Please let us know what you like, what you don't like, and what you are still missing.